NCAR-RAP Real-Time Weather Data

Output produced by METARs form (08 May 2021  17:15 UTC)
found at http://weather.rap.ucar.edu/surface/
 
KRAP 081652Z 07005KT 10SM FEW030 OVC037 07/M01 A2981 RMK AO2 SLP095 T00671011
KRAP 081600Z 08008KT 10SM OVC030 07/M01 A2980 RMK AO2 T00671011
KRAP 081552Z 10007KT 10SM OVC029 07/M01 A2980 RMK AO2 SLP092 T00671011
KRAP 081452Z 09013KT 10SM OVC028 07/M02 A2977 RMK AO2 SLP082 T00671022 50009
KRAP 081352Z 07009KT 10SM OVC029 07/M03 A2978 RMK AO2 SLP082 T00721028
KRAP 081318Z 10007KT 10SM OVC029 07/M03 A2976 RMK AO2 T00721028
KRAP 081252Z 11009KT 10SM OVC032 07/M02 A2974 RMK AO2 SLP067 T00721022
KRAP 081152Z 11007KT 10SM OVC033 07/M02 A2974 RMK AO2 SLP066 T00721022 10106 20072 58000
KRAP 081052Z AUTO 11005KT 10SM OVC036 08/M02 A2977 RMK AO2 PK WND 11026/0959 SLP071 T00781022
KRAP 080952Z AUTO 11019KT 10SM OVC040 08/M02 A2972 RMK AO2 SLP053 T00831022
KRAP 080852Z AUTO 10014G23KT 10SM OVC042 09/M01 A2974 RMK AO2 SLP061 T00941011 58022
KRAP 080752Z AUTO 10011KT 10SM BKN047 09/M01 A2978 RMK AO2 SLP076 T00891006
KRAP 080652Z AUTO 13014G24KT 10SM CLR 10/00 A2978 RMK AO2 LTG DSNT S SLP076 T01000000 402110017
KRAP 080552Z AUTO 15011KT 10SM CLR 11/01 A2981 RMK AO2 PK WND 14026/0525 SLP086 T01060006 10183 20106 58008
KRAP 080452Z AUTO 12018G24KT 10SM CLR 13/00 A2982 RMK AO2 PK WND 14027/0432 SLP087 T01280000
KRAP 080352Z 12010KT 10SM CLR 13/01 A2984 RMK AO2 SLP097 T01280006
KRAP 080252Z 11008KT 10SM CLR 14/02 A2984 RMK AO2 SLP101 T01390017 53001
KRAP 080152Z 11017KT 10SM CLR 15/01 A2981 RMK AO2 PK WND 12028/0110 SLP094 T01500011
KRAP 080052Z 11021G29KT 10SM CLR 17/02 A2982 RMK AO2 PK WND 11031/2358 SLP095 T01670017
KRAP 072352Z 11022G30KT 10SM CLR 18/03 A2984 RMK AO2 PK WND 12030/2350 SLP105 T01830028 10211 20172 56028
KRAP 072252Z 11020G30KT 10SM CLR 19/03 A2987 RMK AO2 PK WND 13031/2236 SLP112 T01940028
KRAP 072152Z 12023G29KT 10SM CLR 21/03 A2989 RMK AO2 PK WND 12029/2119 SLP120 T02110033
KRAP 072052Z 12021G30KT 10SM CLR 21/03 A2993 RMK AO2 PK WND 14032/2011 SLP131 T02060028 56030
KRAP 071952Z 12012G27KT 10SM CLR 19/02 A2996 RMK AO2 PK WND 13027/1908 SLP139 T01890022
KRAP 071852Z 13019G25KT 10SM CLR 18/02 A2998 RMK AO2 PK WND 12026/1838 SLP153 T01830017
KRAP 071752Z 13014G26KT 10SM CLR 17/01 A3003 RMK AO2 PK WND 12026/1749 SLP168 T01720011 10178 20022 58016
KRAP 071652Z 11012KT 10SM CLR 16/01 A3005 RMK AO2 SLP175 T01610006
KRAP 071552Z 15008KT 10SM CLR 13/01 A3006 RMK AO2 SLP182 T01330006
KRAP 071452Z 14006KT 10SM CLR 11/01 A3008 RMK AO2 SLP189 T01060006 58001
KRAP 071352Z 12003KT 10SM CLR 07/M01 A3009 RMK AO2 SLP190 T00721011
KRAP 071252Z 12003KT 10SM CLR 06/M02 A3009 RMK AO2 SLP190 T00561017
KRAP 071152Z AUTO 00000KT 10SM CLR 02/M02 A3008 RMK AO2 SLP190 T00221022 10078 20017 56006
KRAP 071052Z AUTO 05011KT 10SM CLR 04/M02 A3009 RMK AO2 SLP188 T00391017
KRAP 070952Z AUTO 31004KT 10SM CLR 02/M02 A3009 RMK AO2 SLP193 T00221022
KRAP 070852Z AUTO 30003KT 10SM CLR 03/M02 A3010 RMK AO2 SLP196 T00331017 58015
KRAP 070752Z AUTO 29004KT 10SM CLR 07/M01 A3013 RMK AO2 SLP202 T00721011
KRAP 070652Z AUTO 30004KT 10SM CLR 03/M02 A3014 RMK AO2 SLP214 T00331022 401830017
KRAP 070552Z AUTO 00000KT 10SM CLR 05/M03 A3015 RMK AO2 SLP214 T00501028 10178 20050 50000
KRAP 070452Z AUTO 06008KT 10SM CLR 07/M02 A3016 RMK AO2 SLP216 T00671022
KRAP 070352Z 06008KT 10SM CLR 08/M01 A3016 RMK AO2 SLP215 T00781011
KRAP 070252Z 03004KT 10SM CLR 09/00 A3015 RMK AO2 SLP213 T00940000 55000
KRAP 070152Z 04003KT 10SM CLR 13/01 A3015 RMK AO2 SLP209 T01330011
KRAP 070052Z 01004KT 10SM CLR 17/01 A3014 RMK AO2 SLP207 T01670011
KRAP 062352Z VRB03KT 10SM CLR 17/01 A3015 RMK AO2 SLP214 T01720006 10183 20139 56015
KRAP 062252Z 00000KT 10SM CLR 18/00 A3017 RMK AO2 SLP216 T01780000
KRAP 062152Z VRB03KT 10SM BKN065 17/01 A3018 RMK AO2 SLP224 T01720006
KRAP 062052Z VRB06KT 10SM FEW065 18/01 A3020 RMK AO2 SLP230 T01780011 56021
KRAP 061952Z 16005KT 10SM FEW060 16/01 A3022 RMK AO2 SLP238 T01610011
KRAP 061852Z 36004KT 10SM SCT055 15/01 A3024 RMK AO2 SLP250 T01500011
KRAP 061752Z 01009KT 10SM FEW050 15/01 A3027 RMK AO2 SLP258 T01500011 10150 20028 58016